createdAt,value
2022-10-26T00:04:47.793Z,95821.00
2022-10-26T00:10:15.790Z,95815.00
2022-10-26T00:15:43.668Z,95814.00
2022-10-26T00:21:11.818Z,95812.00
2022-10-26T00:26:40.208Z,95803.00
2022-10-26T00:32:07.951Z,95798.00
2022-10-26T00:37:35.695Z,95787.00
2022-10-26T00:43:03.771Z,95787.00
2022-10-26T00:48:38.794Z,95776.00
2022-10-26T00:54:13.624Z,95775.00
2022-10-26T00:59:43.654Z,95777.00
2022-10-26T01:05:14.514Z,95787.00
2022-10-26T01:10:43.161Z,95787.00
2022-10-26T01:16:48.224Z,95787.00
2022-10-26T01:22:39.950Z,95793.00
2022-10-26T01:29:06.691Z,95791.00
2022-10-26T01:34:47.310Z,95786.00
2022-10-26T01:40:28.820Z,95816.00
2022-10-26T01:45:57.815Z,95822.00
2022-10-26T01:51:27.721Z,95814.00
2022-10-26T01:57:05.748Z,95793.00
2022-10-26T02:03:39.213Z,95779.00
2022-10-26T02:09:40.546Z,95789.00
2022-10-26T02:15:23.822Z,95791.00
2022-10-26T02:20:58.004Z,95792.00
2022-10-26T02:26:29.074Z,95790.00
2022-10-26T02:31:58.141Z,95808.00
2022-10-26T02:37:27.818Z,95814.00
2022-10-26T02:43:02.588Z,95814.00
2022-10-26T02:48:30.732Z,95824.00
2022-10-26T02:54:24.577Z,95820.00
2022-10-26T02:59:54.117Z,95801.00
2022-10-26T03:05:25.299Z,95785.00
2022-10-26T03:10:53.120Z,95780.00
2022-10-26T03:16:20.926Z,95792.00
2022-10-26T03:21:48.843Z,95742.00
2022-10-26T03:27:16.861Z,95771.00
2022-10-26T03:32:44.799Z,95756.00
2022-10-26T03:38:15.883Z,95764.00
2022-10-26T03:43:44.067Z,95769.00
2022-10-26T03:49:11.933Z,95762.00
2022-10-26T03:54:39.767Z,95760.00
2022-10-26T04:00:08.729Z,95770.00
2022-10-26T04:05:39.284Z,95761.00
2022-10-26T04:11:08.112Z,95787.00
2022-10-26T04:16:36.040Z,95779.00
2022-10-26T04:22:03.925Z,95791.00
2022-10-26T04:27:31.776Z,95785.00
2022-10-26T04:32:59.557Z,95783.00
2022-10-26T04:38:27.771Z,95788.00
2022-10-26T04:43:55.638Z,95794.00
2022-10-26T04:49:23.462Z,95794.00
2022-10-26T04:54:51.291Z,95810.00
2022-10-26T05:00:19.416Z,95842.00
2022-10-26T05:05:50.411Z,95880.00
2022-10-26T05:11:18.182Z,95900.00
2022-10-26T05:16:46.042Z,95934.00
2022-10-26T05:22:13.745Z,95931.00
2022-10-26T05:27:41.444Z,95932.00
2022-10-26T05:33:11.678Z,95917.00
2022-10-26T05:38:39.408Z,95928.00
2022-10-26T05:44:07.166Z,95922.00
2022-10-26T05:49:34.863Z,95945.00
2022-10-26T05:55:02.684Z,95951.00
2022-10-26T06:00:31.436Z,95961.00
2022-10-26T06:06:02.660Z,95958.00
2022-10-26T06:11:33.409Z,95975.00
2022-10-26T06:17:33.470Z,95989.00
2022-10-26T06:23:41.839Z,95993.00
2022-10-26T06:29:35.286Z,95993.00
2022-10-26T06:35:37.537Z,95982.00
2022-10-26T06:41:06.265Z,96001.00
2022-10-26T06:46:52.521Z,96002.00
2022-10-26T06:52:33.429Z,95994.00
2022-10-26T06:58:02.728Z,95989.00
2022-10-26T07:03:30.547Z,95997.00
2022-10-26T07:08:58.327Z,95990.00
2022-10-26T07:14:26.025Z,95991.00
2022-10-26T07:19:54.400Z,95997.00
2022-10-26T07:25:24.037Z,96004.00
2022-10-26T07:30:55.989Z,96002.00
2022-10-26T07:36:24.063Z,96006.00
2022-10-26T07:41:52.142Z,96004.00
2022-10-26T07:47:19.880Z,96004.00
2022-10-26T07:52:47.915Z,95995.00
2022-10-26T07:58:15.872Z,95985.00
2022-10-26T08:03:43.669Z,95980.00
2022-10-26T08:09:11.472Z,95970.00
2022-10-26T08:14:39.153Z,95962.00
2022-10-26T08:20:07.812Z,95974.00
2022-10-26T08:25:35.833Z,95994.00
2022-10-26T08:31:04.142Z,95987.00
2022-10-26T08:36:32.258Z,95994.00
2022-10-26T08:42:19.952Z,95988.00
2022-10-26T08:47:55.668Z,95996.00
2022-10-26T08:53:32.508Z,95998.00
2022-10-26T08:59:38.424Z,96014.00
2022-10-26T09:05:17.371Z,96017.00
2022-10-26T09:11:13.832Z,96010.00
2022-10-26T09:17:19.558Z,96015.00
2022-10-26T09:23:48.177Z,96024.00
2022-10-26T09:29:15.900Z,96013.00
2022-10-26T09:34:51.528Z,96027.00
2022-10-26T09:40:23.339Z,96032.00
2022-10-26T09:45:54.494Z,96029.00
2022-10-26T09:51:23.883Z,96054.00
2022-10-26T09:57:00.414Z,96058.00
2022-10-26T10:02:47.277Z,96066.00
2022-10-26T10:08:27.703Z,96064.00
2022-10-26T10:13:55.510Z,96064.00
2022-10-26T10:19:31.269Z,96074.00
2022-10-26T10:25:01.942Z,96080.00
2022-10-26T10:30:33.261Z,96080.00
2022-10-26T10:36:02.432Z,96081.00
2022-10-26T10:41:36.557Z,96083.00
2022-10-26T10:47:07.149Z,96097.00
2022-10-26T10:52:36.419Z,96082.00
2022-10-26T10:58:23.053Z,96089.00
2022-10-26T11:04:10.489Z,96095.00
2022-10-26T11:09:42.183Z,96094.00
2022-10-26T11:15:24.424Z,96100.00
2022-10-26T11:21:03.014Z,96092.00
2022-10-26T11:26:43.594Z,96096.00
2022-10-26T11:32:30.708Z,96101.00
2022-10-26T11:38:45.470Z,96106.00
2022-10-26T11:44:43.570Z,96107.00
2022-10-26T11:50:22.618Z,96117.00
2022-10-26T11:55:54.403Z,96115.00
2022-10-26T12:01:22.964Z,96128.00
2022-10-26T12:06:53.384Z,96129.00
2022-10-26T12:12:41.449Z,96133.00
2022-10-26T12:18:54.993Z,96144.00
2022-10-26T12:24:30.714Z,96147.00
2022-10-26T12:30:26.390Z,96154.00
2022-10-26T12:35:54.162Z,96147.00
2022-10-26T12:41:24.761Z,96166.00
2022-10-26T12:46:52.563Z,96167.00
2022-10-26T12:52:54.704Z,96163.00
2022-10-26T12:59:04.874Z,96162.00
2022-10-26T13:05:12.944Z,96167.00
2022-10-26T13:11:14.185Z,96164.00
2022-10-26T13:16:45.763Z,96172.00
2022-10-26T13:22:21.327Z,96165.00
2022-10-26T13:28:05.317Z,96174.00
2022-10-26T13:33:41.157Z,96183.00
2022-10-26T13:39:33.216Z,96191.00
2022-10-26T13:45:10.291Z,96187.00
2022-10-26T13:50:46.514Z,96197.00
2022-10-26T13:56:35.485Z,96196.00
2022-10-26T14:02:30.600Z,96201.00
2022-10-26T14:07:59.422Z,96207.00
2022-10-26T14:13:29.724Z,96214.00
2022-10-26T14:18:58.252Z,96209.00
2022-10-26T14:24:52.876Z,96212.00
2022-10-26T14:30:34.782Z,96222.00
2022-10-26T14:36:10.244Z,96213.00
2022-10-26T14:41:41.291Z,96211.00
2022-10-26T14:47:38.964Z,96217.00
2022-10-26T14:53:17.739Z,96239.00
2022-10-26T14:58:45.629Z,96239.00
2022-10-26T15:04:29.461Z,96247.00
2022-10-26T15:09:57.264Z,96245.00
2022-10-26T15:15:26.585Z,96259.00
2022-10-26T15:20:56.068Z,96259.00
2022-10-26T15:26:25.123Z,96261.00
2022-10-26T15:32:01.416Z,96265.00
2022-10-26T15:37:29.140Z,96270.00
2022-10-26T15:43:00.818Z,96277.00
2022-10-26T15:48:34.295Z,96270.00
2022-10-26T15:54:05.063Z,96276.00
2022-10-26T15:59:33.607Z,96275.00
2022-10-26T16:05:01.703Z,96287.00
2022-10-26T16:10:29.520Z,96283.00
2022-10-26T16:15:57.927Z,96303.00
2022-10-26T16:21:26.037Z,96300.00
2022-10-26T16:26:54.523Z,96301.00
2022-10-26T16:32:22.257Z,96309.00
2022-10-26T16:37:50.174Z,96306.00
2022-10-26T16:43:17.916Z,96322.00
2022-10-26T16:48:49.236Z,96325.00
2022-10-26T16:54:17.739Z,96331.00
2022-10-26T16:59:45.564Z,96342.00
2022-10-26T17:05:13.500Z,96337.00
2022-10-26T17:10:41.363Z,96354.00
2022-10-26T17:16:16.626Z,96349.00
2022-10-26T17:21:44.949Z,96356.00
2022-10-26T17:27:12.885Z,96370.00
2022-10-26T17:32:43.922Z,96382.00
2022-10-26T17:38:11.754Z,96380.00
2022-10-26T17:43:43.687Z,96387.00
2022-10-26T17:49:11.608Z,96388.00
2022-10-26T17:54:41.490Z,96406.00
2022-10-26T18:00:10.184Z,96406.00
2022-10-26T18:05:52.518Z,96417.00
2022-10-26T18:11:26.888Z,96423.00
2022-10-26T18:16:55.250Z,96436.00
2022-10-26T18:22:23.133Z,96434.00
2022-10-26T18:27:51.035Z,96445.00
2022-10-26T18:33:18.973Z,96443.00
2022-10-26T18:38:47.963Z,96443.00
2022-10-26T18:44:15.956Z,96448.00
2022-10-26T18:49:43.730Z,96457.00
2022-10-26T18:55:11.720Z,96458.00
2022-10-26T19:00:42.190Z,96460.00
2022-10-26T19:06:21.845Z,96467.00
2022-10-26T19:11:50.621Z,96475.00
2022-10-26T19:17:19.722Z,96476.00
2022-10-26T19:22:48.797Z,96484.00
2022-10-26T19:28:18.442Z,96491.00
2022-10-26T19:33:47.232Z,96494.00
2022-10-26T19:39:19.107Z,96499.00
2022-10-26T19:44:47.177Z,96510.00
2022-10-26T19:50:15.294Z,96498.00
2022-10-26T19:55:47.044Z,96497.00
2022-10-26T20:01:16.026Z,96513.00
2022-10-26T20:06:44.169Z,96507.00
2022-10-26T20:12:13.874Z,96514.00
2022-10-26T20:23:15.976Z,96521.00
2022-10-26T20:28:47.621Z,96518.00
2022-10-26T20:34:15.499Z,96522.00
2022-10-26T20:39:43.763Z,96516.00
2022-10-26T20:45:32.753Z,96520.00
2022-10-26T20:56:47.791Z,96526.00
2022-10-26T21:02:15.946Z,96530.00
2022-10-26T21:07:44.160Z,96525.00
2022-10-26T21:13:13.168Z,96526.00
2022-10-26T21:18:41.075Z,96530.00
2022-10-26T21:24:09.125Z,96533.00
2022-10-26T21:29:36.994Z,96533.00
2022-10-26T21:35:05.705Z,96535.00
2022-10-26T21:40:33.485Z,96533.00
2022-10-26T21:46:04.851Z,96541.00
2022-10-26T21:51:32.805Z,96543.00
2022-10-26T21:57:00.604Z,96548.00
2022-10-26T22:02:28.649Z,96548.00
2022-10-26T22:07:57.032Z,96550.00
2022-10-26T22:13:25.415Z,96550.00
2022-10-26T22:18:56.728Z,96544.00
2022-10-26T22:24:24.609Z,96553.00
2022-10-26T22:29:52.571Z,96562.00
2022-10-26T22:35:35.596Z,96552.00
2022-10-26T22:41:03.946Z,96552.00
2022-10-26T22:46:31.849Z,96547.00
2022-10-26T22:51:59.586Z,96553.00
2022-10-26T22:57:27.585Z,96552.00
2022-10-26T23:02:55.855Z,96556.00
2022-10-26T23:08:24.322Z,96560.00
2022-10-26T23:14:00.564Z,96549.00
2022-10-26T23:19:28.393Z,96552.00
2022-10-26T23:24:56.226Z,96549.00
2022-10-26T23:30:24.357Z,96543.00
2022-10-26T23:35:53.034Z,96544.00
2022-10-26T23:41:20.918Z,96546.00
2022-10-26T23:46:48.798Z,96554.00
2022-10-26T23:52:16.889Z,96545.00
2022-10-26T23:57:44.672Z,96557.00
